Flight Track Log - Related Links

Times and Time Zones

All times are in EST time to prevent confusion due to time zone crossing. See the N6671X flight status page for this flight to view local times or setup timezone preferences in your user account.

Time Position Orientation Groundspeed Altitude Reporting Facility
EST Latitude Longitude Course Direction KTS MPH feet Rate Location/Type
Thu 04:43:00 PM 34.2657 -80.2732 15° North  Level Estimated
Thu 04:44:00 PM 34.3106 -80.2574 16° North  Level FlightAware Approximate
Thu 04:45:00 PM 34.3554 -80.2417 16° North  Level FlightAware Approximate
Thu 04:46:00 PM 34.4003 -80.2259 16° North  Level FlightAware Approximate
Thu 04:47:00 PM 34.4452 -80.2101 16° North  Level FlightAware Approximate
Thu 04:48:00 PM 34.4900 -80.1942 16° North  Level FlightAware Approximate
Thu 04:49:00 PM 34.5349 -80.1784 16° North  Level FlightAware Approximate
Thu 04:50:00 PM 34.5798 -80.1626 16° North  Level FlightAware Approximate
Thu 04:51:00 PM 34.6249 -80.1478 14° North  Level Estimated
Thu 04:52:00 PM 34.6700 -80.1332 15° North  Level FlightAware Approximate
Thu 04:53:00 PM 34.7152 -80.1185 15° North  Level FlightAware Approximate
Thu 04:54:00 PM 34.7603 -80.1039 15° North  Level FlightAware Approximate
Thu 04:55:00 PM 34.8055 -80.0892 15° North  Level FlightAware Approximate
Thu 04:56:00 PM 34.8506 -80.0746 15° North  Level FlightAware Approximate
Thu 04:57:00 PM 34.8957 -80.0599 15° North  Level FlightAware Approximate
Thu 04:58:00 PM 34.9409 -80.0452 15° North  Level FlightAware Approximate
Thu 04:59:00 PM 34.9860 -80.0305 15° North  Level FlightAware Approximate
Thu 05:00:00 PM 35.0312 -80.0157 15° North  Level FlightAware Approximate
Thu 05:01:00 PM 35.0762 -80.0008 16° North  Level Estimated
Thu 05:02:00 PM 35.1212 -79.9853 16° North  Level FlightAware Approximate
Thu 05:03:00 PM 35.1662 -79.9698 16° North  Level FlightAware Approximate
Thu 05:04:00 PM 35.2112 -79.9544 16° North  Level FlightAware Approximate
Thu 05:05:00 PM 35.2561 -79.9389 16° North  Level FlightAware Approximate
Thu 05:06:00 PM 35.3011 -79.9233 16° North  Level FlightAware Approximate
Thu 05:07:00 PM 35.3461 -79.9078 16° North  Level FlightAware Approximate
Thu 05:08:00 PM 35.3910 -79.8922 16° North  Level FlightAware Approximate
Thu 05:09:00 PM 35.4360 -79.8766 16° North  Level FlightAware Approximate
Thu 05:10:00 PM 35.4809 -79.8610 16° North  Level FlightAware Approximate
Thu 05:11:00 PM 35.5259 -79.8454 16° North  Level FlightAware Approximate
Thu 05:12:00 PM 35.5709 -79.8298 16° North  Level FlightAware Approximate
Thu 05:13:00 PM 35.6158 -79.8141 16° North  Level FlightAware Approximate
Thu 05:14:00 PM 35.6608 -79.7985 16° North  Level FlightAware Approximate
Thu 05:15:00 PM 35.7057 -79.7828 16° North  Level FlightAware Approximate
Thu 05:16:00 PM 35.7507 -79.7671 16° North  Level FlightAware Approximate
Thu 05:17:00 PM 35.7956 -79.7514 16° North  Level FlightAware Approximate
Thu 05:18:00 PM 35.8406 -79.7356 16° North  Level FlightAware Approximate
Thu 05:19:00 PM 35.8855 -79.7199 16° North  Level FlightAware Approximate
Thu 05:20:00 PM 35.9304 -79.7041 16° North  Level FlightAware Approximate
Thu 05:21:00 PM 35.9754 -79.6883 16° North  Level FlightAware Approximate
Thu 05:22:00 PM 36.0203 -79.6725 16° North  Level FlightAware Approximate
Thu 05:23:00 PM 36.0653 -79.6567 16° North  Level FlightAware Approximate
Thu 05:24:00 PM 36.1103 -79.6415 15° North  Level Estimated
Thu 05:25:00 PM 36.1554 -79.6263 15° North  Level FlightAware Approximate
Thu 05:25:11 PM 36.2494 -79.5431 15° North 187 215 9,100  Level Washington Center
Thu 05:26:00 PM 36.2005 -79.6111 15° North  Level FlightAware Approximate
Thu 05:26:11 PM 36.3022 -79.5250 15° North 187 215 9,000  Level Washington Center
Thu 05:27:00 PM 36.2456 -79.5958 15° North  Level FlightAware Approximate
Thu 05:27:12 PM 36.3464 -79.5144 11° North 181 208 9,100  Level Washington Center
Thu 05:28:00 PM 36.2906 -79.5806 15° North  Level FlightAware Approximate
Thu 05:28:13 PM 36.4011 -79.4964 15° North 181 208 9,100  Level Washington Center
Thu 05:29:00 PM 36.3357 -79.5653 15° North  Level FlightAware Approximate
Thu 05:29:11 PM 36.4456 -79.4806 16° North 181 208 9,100  Level Washington Center
Thu 05:30:00 PM 36.3808 -79.5500 15° North  Level FlightAware Approximate
Thu 05:30:11 PM 36.4961 -79.4675 12° North 181 208 9,100  Level Washington Center
Thu 05:31:12 PM 36.5447 -79.4494 17° North 181 208 9,000  Descending Washington Center
Thu 05:32:12 PM 36.5950 -79.4364 12° North 181 208 9,100  Climbing Washington Center
Thu 05:33:12 PM 36.6500 -79.4183 15° North 181 208 9,000 -50 Descending Washington Center
Thu 05:34:11 PM 36.7006 -79.4028 14° North 181 208 9,000  Level Washington Center
Thu 05:35:12 PM 36.7489 -79.3869 15° North 181 208 9,000 50 Level Washington Center
Thu 05:36:12 PM 36.7994 -79.3711 14° North 181 208 9,100 50 Climbing Washington Center
Thu 05:37:13 PM 36.8458 -79.3581 13° North 181 208 9,100  Level Washington Center
Thu 05:38:11 PM 36.8964 -79.3397 16° North 181 208 9,100 -50 Level Washington Center
Thu 05:39:12 PM 36.9450 -79.3239 15° North 181 208 9,000 -50 Descending Washington Center
Thu 05:40:12 PM 36.9956 -79.3081 14° North 181 208 9,000  Level Washington Center
Thu 05:41:13 PM 37.0525 -79.2900 14° North 181 208 9,000  Level Washington Center
Thu 05:42:13 PM 37.1008 -79.2742 15° North 181 208 9,000  Level Washington Center
Thu 05:43:11 PM 37.1536 -79.2583 13° North 181 208 9,000  Level Washington Center
Thu 05:44:11 PM 37.2042 -79.2425 14° North 181 208 9,000 -88 Level Washington Center
Thu 05:46:00 PM 37.2887 -79.2146 15° North  Level FlightAware Approximate
Thu 05:51:09 PM 37.5667 -79.1167 North 196 226 8,300  Level Potomac TRACON
Thu 05:52:10 PM 37.6167 -79.1000 15° North 209 241 7,700 -496 Descending Potomac TRACON
Thu 05:53:00 PM 37.6141 -79.1064 15° North  Level FlightAware Approximate
Thu 05:53:10 PM 37.6833 -79.0833 11° North 209 241 7,300  Level Potomac TRACON
Thu 05:54:00 PM 37.6624 -79.1000 North  Level FlightAware Approximate
Thu 05:54:11 PM 37.7333 -79.0667 15° North 208 239 7,000  Level Potomac TRACON
Thu 05:55:00 PM 37.7112 -79.1000 North  Level FlightAware Approximate
Thu 05:55:11 PM 37.7833 -79.0500 15° North 192 221 7,000  Level Potomac TRACON
Thu 05:56:11 PM 37.8333 -79.0333 15° North 191 220 7,000 -99 Level Potomac TRACON
Thu 05:57:12 PM 37.8833 -79.0167 15° North 193 222 6,800 -496 Descending Potomac TRACON
Thu 05:58:12 PM 37.9500 -79.0000 11° North 209 241 6,000 -800 Descending Potomac TRACON
Thu 05:59:12 PM 38.0000 -78.9833 15° North 212 244 5,200 -800 Descending Potomac TRACON

Login

Don't have an account? Register now (free) for customized features, flight alerts, and more!